createdAt,value
2023-05-04T00:01:32.557Z,12.90
2023-05-04T00:03:59.505Z,12.50
2023-05-04T00:06:26.870Z,12.80
2023-05-04T00:08:53.623Z,12.60
2023-05-04T00:11:20.442Z,13.60
2023-05-04T00:13:47.184Z,13.40
2023-05-04T00:16:13.953Z,13.40
2023-05-04T00:18:41.078Z,12.90
2023-05-04T00:21:08.156Z,13.20
2023-05-04T00:23:34.974Z,13.50
2023-05-04T00:26:01.758Z,13.60
2023-05-04T00:28:28.554Z,13.80
2023-05-04T00:30:55.815Z,14.50
2023-05-04T00:33:22.961Z,14.50
2023-05-04T00:35:49.704Z,14.50
2023-05-04T00:38:19.316Z,13.60
2023-05-04T00:40:46.161Z,14.70
2023-05-04T00:43:12.914Z,14.60
2023-05-04T00:45:39.647Z,14.20
2023-05-04T00:48:06.997Z,14.20
2023-05-04T00:50:34.278Z,14.10
2023-05-04T00:53:03.664Z,14.20
2023-05-04T00:55:30.430Z,13.10
2023-05-04T00:57:57.253Z,13.60
2023-05-04T01:00:24.005Z,13.00
2023-05-04T01:02:50.879Z,13.60
2023-05-04T01:05:17.810Z,13.80
2023-05-04T01:08:06.930Z,15.10
2023-05-04T01:10:38.728Z,17.00
2023-05-04T01:15:35.173Z,14.40
2023-05-04T01:18:02.074Z,13.30
2023-05-04T01:20:28.975Z,12.60
2023-05-04T01:22:56.204Z,13.30
2023-05-04T01:25:24.825Z,12.90
2023-05-04T01:28:11.466Z,12.40
2023-05-04T01:30:44.738Z,12.90
2023-05-04T01:33:11.597Z,12.90
2023-05-04T01:35:38.470Z,12.70
2023-05-04T01:38:05.327Z,12.30
2023-05-04T01:40:32.577Z,14.50
2023-05-04T01:42:59.302Z,14.10
2023-05-04T01:45:26.050Z,12.80
2023-05-04T01:47:52.855Z,11.00
2023-05-04T01:50:20.043Z,11.10
2023-05-04T01:52:46.786Z,10.80
2023-05-04T01:55:13.552Z,9.80
2023-05-04T01:57:40.404Z,9.50
2023-05-04T02:00:08.263Z,10.60
2023-05-04T02:02:44.864Z,10.20
2023-05-04T02:05:15.056Z,9.80
2023-05-04T02:07:41.814Z,9.50
2023-05-04T02:10:09.378Z,9.40
2023-05-04T02:12:36.235Z,9.70
2023-05-04T02:15:03.704Z,9.90
2023-05-04T02:17:31.064Z,10.00
2023-05-04T02:19:57.889Z,9.70
2023-05-04T02:22:24.654Z,9.70
2023-05-04T02:24:53.011Z,9.70
2023-05-04T02:27:20.678Z,9.60
2023-05-04T02:29:47.428Z,9.80
2023-05-04T02:32:14.200Z,10.00
2023-05-04T02:34:40.991Z,9.60
2023-05-04T02:37:07.776Z,9.50
2023-05-04T02:39:35.090Z,9.50
2023-05-04T02:42:54.331Z,9.50
2023-05-04T02:45:21.706Z,9.70
2023-05-04T02:47:49.102Z,9.10
2023-05-04T02:50:16.021Z,8.80
2023-05-04T02:52:42.868Z,8.40
2023-05-04T02:55:10.104Z,8.30
2023-05-04T02:57:36.834Z,7.90
2023-05-04T03:00:07.186Z,8.40
2023-05-04T03:02:34.190Z,8.60
2023-05-04T03:05:01.192Z,8.50
2023-05-04T03:07:28.121Z,8.30
2023-05-04T03:09:54.885Z,8.70
2023-05-04T03:12:21.641Z,8.90
2023-05-04T03:14:48.457Z,8.90
2023-05-04T03:17:15.462Z,9.00
2023-05-04T03:19:42.436Z,8.80
2023-05-04T03:22:09.865Z,8.50
2023-05-04T03:24:37.912Z,8.00
2023-05-04T03:27:04.618Z,8.70
2023-05-04T03:29:31.741Z,8.50
2023-05-04T03:31:58.663Z,8.20
2023-05-04T03:34:26.119Z,8.60
2023-05-04T03:36:55.698Z,7.90
2023-05-04T03:39:22.403Z,8.30
2023-05-04T03:41:49.668Z,8.40
2023-05-04T03:44:16.452Z,8.20
2023-05-04T03:46:44.370Z,7.80
2023-05-04T03:49:11.623Z,7.70
2023-05-04T03:51:38.857Z,7.90
2023-05-04T03:54:06.262Z,7.60
2023-05-04T03:56:33.089Z,7.80
2023-05-04T03:59:00.070Z,7.50
2023-05-04T04:01:29.437Z,7.30
2023-05-04T04:03:56.722Z,7.70
2023-05-04T04:06:23.570Z,7.90
2023-05-04T04:08:50.306Z,7.60
2023-05-04T04:11:17.051Z,7.50
2023-05-04T04:13:43.888Z,7.60
2023-05-04T04:16:10.696Z,7.70
2023-05-04T04:18:37.587Z,7.30
2023-05-04T04:21:04.534Z,7.60
2023-05-04T04:23:31.642Z,7.50
2023-05-04T04:25:58.457Z,7.40
2023-05-04T04:28:25.305Z,7.50
2023-05-04T04:30:52.161Z,7.70
2023-05-04T04:33:19.410Z,8.00
2023-05-04T04:35:46.400Z,7.60
2023-05-04T04:38:13.113Z,7.70
2023-05-04T04:40:39.862Z,7.00
2023-05-04T04:43:06.619Z,7.90
2023-05-04T04:45:34.021Z,7.40
2023-05-04T04:48:01.129Z,7.80
2023-05-04T04:50:29.272Z,8.20
2023-05-04T04:52:56.274Z,7.30
2023-05-04T04:55:26.040Z,7.60
2023-05-04T04:57:53.065Z,6.60
2023-05-04T05:00:19.925Z,6.80
2023-05-04T05:02:46.716Z,7.20
2023-05-04T05:05:13.798Z,6.10
2023-05-04T05:07:41.316Z,6.10
2023-05-04T05:10:08.825Z,6.80
2023-05-04T05:12:35.846Z,6.10
2023-05-04T05:15:04.574Z,5.90
2023-05-04T05:17:31.564Z,6.70
2023-05-04T05:19:58.382Z,6.90
2023-05-04T05:22:25.217Z,6.30
2023-05-04T05:24:52.278Z,6.50
2023-05-04T05:27:19.570Z,6.00
2023-05-04T05:29:47.133Z,6.60
2023-05-04T05:32:14.087Z,5.90
2023-05-04T05:34:40.885Z,5.80
2023-05-04T05:37:08.030Z,5.90
2023-05-04T05:39:34.793Z,7.60
2023-05-04T05:42:02.325Z,8.10
2023-05-04T05:44:29.103Z,8.20
2023-05-04T05:46:59.366Z,10.80
2023-05-04T05:49:36.077Z,7.30
2023-05-04T05:52:02.958Z,7.60
2023-05-04T05:54:31.208Z,5.60
2023-05-04T05:56:58.348Z,7.10
2023-05-04T05:59:25.300Z,5.90
2023-05-04T06:01:52.055Z,6.20
2023-05-04T06:04:18.851Z,6.50
2023-05-04T06:06:46.225Z,5.90
2023-05-04T06:09:13.290Z,6.10
2023-05-04T06:11:40.646Z,6.50
2023-05-04T06:14:07.530Z,6.50
2023-05-04T06:16:34.415Z,6.30
2023-05-04T06:19:01.590Z,6.50
2023-05-04T06:21:28.364Z,5.60
2023-05-04T06:23:55.331Z,6.30
2023-05-04T06:26:22.845Z,6.20
2023-05-04T06:28:50.454Z,6.60
2023-05-04T06:31:17.211Z,6.70
2023-05-04T06:33:44.052Z,6.70
2023-05-04T06:36:12.184Z,6.70
2023-05-04T06:38:41.043Z,6.10
2023-05-04T06:41:08.006Z,7.10
2023-05-04T06:43:35.063Z,6.10
2023-05-04T06:46:03.128Z,6.40
2023-05-04T06:48:30.653Z,6.90
2023-05-04T06:50:57.528Z,6.80
2023-05-04T06:53:25.135Z,6.50
2023-05-04T06:55:52.240Z,7.00
2023-05-04T06:58:22.105Z,6.40
2023-05-04T07:00:49.547Z,5.90
2023-05-04T07:03:16.560Z,6.20
2023-05-04T07:05:45.425Z,6.70
2023-05-04T07:08:12.535Z,6.20
2023-05-04T07:10:39.488Z,6.80
2023-05-04T07:13:06.489Z,6.80
2023-05-04T07:15:36.464Z,6.40
2023-05-04T07:18:03.374Z,6.80
2023-05-04T07:20:30.235Z,6.80
2023-05-04T07:22:57.256Z,6.10
2023-05-04T07:25:25.451Z,6.30
2023-05-04T07:27:52.622Z,6.40
2023-05-04T07:30:20.510Z,6.80
2023-05-04T07:32:47.338Z,7.00
2023-05-04T07:35:14.765Z,6.70
2023-05-04T07:37:41.544Z,8.20
2023-05-04T07:40:09.611Z,7.60
2023-05-04T07:42:36.646Z,7.50
2023-05-04T07:45:04.347Z,7.90
2023-05-04T07:47:31.423Z,7.70
2023-05-04T07:49:58.351Z,9.10
2023-05-04T07:52:25.198Z,9.10
2023-05-04T07:54:53.556Z,9.40
2023-05-04T07:57:20.982Z,9.80
2023-05-04T07:59:47.737Z,9.90
2023-05-04T08:02:14.581Z,10.40
2023-05-04T08:04:41.396Z,10.20
2023-05-04T08:07:08.144Z,11.60
2023-05-04T08:09:34.900Z,11.20
2023-05-04T08:12:02.610Z,11.60
2023-05-04T08:14:29.643Z,10.90
2023-05-04T08:16:56.886Z,12.60
2023-05-04T08:19:24.767Z,12.60
2023-05-04T08:21:51.537Z,13.30
2023-05-04T08:24:18.502Z,12.70
2023-05-04T08:26:52.590Z,11.40
2023-05-04T08:29:31.956Z,11.90
2023-05-04T08:31:59.708Z,12.30
2023-05-04T08:34:26.947Z,11.90
2023-05-04T08:36:53.807Z,11.70
2023-05-04T08:39:20.784Z,12.20
2023-05-04T08:41:47.510Z,11.00
2023-05-04T08:44:14.962Z,12.40
2023-05-04T08:46:42.342Z,11.00
2023-05-04T08:49:10.471Z,11.20
2023-05-04T08:51:37.648Z,11.20
2023-05-04T08:54:07.343Z,11.20
2023-05-04T08:56:35.857Z,12.20
2023-05-04T08:59:03.963Z,12.40
2023-05-04T09:01:30.741Z,12.30
2023-05-04T09:03:57.710Z,12.00
2023-05-04T09:06:24.670Z,12.60
2023-05-04T09:08:51.417Z,11.60
2023-05-04T09:11:18.320Z,12.20
2023-05-04T09:13:45.302Z,12.30
2023-05-04T09:16:14.590Z,12.90
2023-05-04T09:18:43.352Z,13.00
2023-05-04T09:21:11.036Z,12.90
2023-05-04T09:23:48.412Z,13.10
2023-05-04T09:26:15.359Z,14.20
2023-05-04T09:28:42.161Z,14.10
2023-05-04T09:31:09.036Z,15.30
2023-05-04T09:33:37.174Z,15.90
2023-05-04T09:36:21.329Z,17.50
2023-05-04T09:38:48.901Z,17.70
2023-05-04T09:41:16.123Z,19.50
2023-05-04T09:43:43.904Z,19.90
2023-05-04T09:46:18.508Z,22.80
2023-05-04T09:48:52.869Z,22.10
2023-05-04T09:51:23.393Z,22.10
2023-05-04T09:53:50.654Z,22.10
2023-05-04T09:56:32.856Z,26.50
2023-05-04T09:58:59.704Z,29.00
2023-05-04T10:01:30.593Z,26.80
2023-05-04T10:03:58.866Z,26.30
2023-05-04T10:06:25.612Z,23.10
2023-05-04T10:08:52.336Z,23.70
2023-05-04T10:11:20.444Z,21.60
2023-05-04T10:13:48.318Z,23.50
2023-05-04T10:16:41.356Z,22.50
2023-05-04T10:19:18.045Z,20.60
2023-05-04T10:22:15.697Z,20.10
2023-05-04T10:24:58.796Z,20.20
2023-05-04T10:28:01.405Z,23.00
2023-05-04T10:30:28.227Z,18.90
2023-05-04T10:32:56.305Z,15.40
2023-05-04T10:35:23.504Z,16.30
2023-05-04T10:37:57.198Z,14.70
2023-05-04T10:40:39.437Z,15.10
2023-05-04T10:43:07.351Z,15.30
2023-05-04T10:45:38.062Z,15.00
2023-05-04T10:48:05.883Z,14.10
2023-05-04T10:50:52.961Z,14.30
2023-05-04T10:53:19.926Z,12.50
2023-05-04T10:55:47.924Z,13.90
2023-05-04T10:58:21.536Z,13.80
2023-05-04T11:00:48.537Z,14.80
2023-05-04T11:03:15.596Z,14.20
2023-05-04T11:05:47.103Z,14.90
2023-05-04T11:08:27.181Z,13.90
2023-05-04T11:11:04.487Z,14.00
2023-05-04T11:13:32.088Z,13.10
2023-05-04T11:15:58.825Z,11.70
2023-05-04T11:18:34.558Z,11.50
2023-05-04T11:21:01.636Z,11.50
2023-05-04T11:23:28.414Z,12.00
2023-05-04T11:25:55.218Z,12.10
2023-05-04T11:28:35.796Z,10.70
2023-05-04T11:31:15.075Z,11.00
2023-05-04T11:33:50.520Z,10.80
2023-05-04T11:36:17.330Z,11.20
2023-05-04T11:38:44.153Z,10.80
2023-05-04T11:41:12.128Z,10.70
2023-05-04T11:43:40.061Z,11.20
2023-05-04T11:46:07.744Z,10.80
2023-05-04T11:48:37.553Z,10.90
2023-05-04T11:51:04.538Z,10.60
2023-05-04T11:56:53.165Z,15.20
2023-05-04T11:59:20.353Z,15.90
2023-05-04T12:01:48.191Z,15.00
2023-05-04T12:04:15.272Z,21.50
2023-05-04T12:06:42.175Z,21.40
2023-05-04T12:09:08.891Z,20.30
2023-05-04T12:11:35.860Z,20.30
2023-05-04T12:14:07.500Z,20.00
2023-05-04T12:16:34.450Z,18.10
2023-05-04T12:19:11.516Z,15.70
2023-05-04T12:21:53.063Z,16.20
2023-05-04T12:24:24.001Z,18.20
2023-05-04T12:26:51.131Z,18.20
2023-05-04T12:29:17.945Z,17.20
2023-05-04T12:31:45.066Z,18.10
2023-05-04T12:34:12.022Z,17.90
2023-05-04T12:36:38.863Z,20.90
2023-05-04T12:39:05.645Z,17.70
2023-05-04T12:41:32.584Z,17.10
2023-05-04T12:43:59.402Z,18.50
2023-05-04T12:46:26.344Z,17.30
2023-05-04T12:48:53.195Z,16.30
2023-05-04T12:51:19.987Z,14.80
2023-05-04T12:53:46.829Z,15.70
2023-05-04T12:56:14.120Z,16.70
2023-05-04T12:58:40.893Z,16.40
2023-05-04T13:01:08.018Z,18.40
2023-05-04T13:03:35.589Z,18.40
2023-05-04T13:06:02.416Z,18.00
2023-05-04T13:08:29.174Z,19.20
2023-05-04T13:10:55.888Z,21.10
2023-05-04T13:13:28.491Z,20.70
2023-05-04T13:18:27.656Z,16.90
2023-05-04T13:20:55.969Z,16.20
2023-05-04T13:23:23.310Z,15.10
2023-05-04T13:25:50.981Z,13.70
2023-05-04T13:28:18.349Z,13.30
2023-05-04T13:30:45.108Z,13.40
2023-05-04T13:33:27.305Z,12.50
2023-05-04T13:35:58.380Z,12.30
2023-05-04T13:38:25.695Z,12.90
2023-05-04T13:40:52.571Z,13.70
2023-05-04T13:43:19.531Z,13.20
2023-05-04T13:45:46.320Z,12.90
2023-05-04T13:48:13.192Z,12.90
2023-05-04T13:50:40.126Z,14.30
2023-05-04T13:53:07.213Z,14.70
2023-05-04T13:55:34.062Z,14.70
2023-05-04T13:58:00.963Z,15.20
2023-05-04T14:00:27.765Z,15.50
2023-05-04T14:02:54.628Z,14.90
2023-05-04T14:05:21.797Z,15.30
2023-05-04T14:07:48.616Z,14.50
2023-05-04T14:10:15.333Z,15.70
2023-05-04T14:12:42.465Z,17.20
2023-05-04T14:15:09.915Z,18.40
2023-05-04T14:17:36.913Z,18.10
2023-05-04T14:20:05.890Z,17.60
2023-05-04T14:22:32.622Z,18.80
2023-05-04T14:24:59.352Z,18.30
2023-05-04T14:27:28.174Z,19.20
2023-05-04T14:29:55.047Z,19.70
2023-05-04T14:32:21.807Z,19.50
2023-05-04T14:35:11.662Z,19.90
2023-05-04T14:37:45.560Z,21.30
2023-05-04T14:40:20.989Z,19.90
2023-05-04T14:42:53.640Z,17.30
2023-05-04T14:45:21.834Z,15.50
2023-05-04T14:47:49.804Z,17.40
2023-05-04T14:50:16.859Z,22.80
2023-05-04T14:52:43.766Z,18.40
2023-05-04T14:55:10.881Z,20.70
2023-05-04T14:57:37.616Z,18.90
2023-05-04T15:01:04.470Z,18.00
2023-05-04T15:03:31.390Z,17.00
2023-05-04T15:05:58.404Z,14.30
2023-05-04T15:08:25.464Z,13.30
2023-05-04T15:10:52.313Z,13.20
2023-05-04T15:13:20.119Z,13.10
2023-05-04T15:15:46.882Z,11.90
2023-05-04T15:18:13.672Z,12.00
2023-05-04T15:20:40.765Z,13.00
2023-05-04T15:23:11.652Z,12.80
2023-05-04T15:25:39.311Z,13.10
2023-05-04T15:28:11.078Z,12.70
2023-05-04T15:30:38.712Z,12.80
2023-05-04T15:33:05.859Z,13.30
2023-05-04T15:35:33.640Z,14.20
2023-05-04T15:38:00.769Z,13.90
2023-05-04T15:40:27.641Z,13.60
2023-05-04T15:42:54.471Z,12.80
2023-05-04T15:45:21.491Z,12.90
2023-05-04T15:47:48.275Z,13.30
2023-05-04T15:50:15.161Z,13.50
2023-05-04T15:52:41.843Z,14.40
2023-05-04T15:55:23.421Z,13.40
2023-05-04T15:57:51.139Z,14.20
2023-05-04T16:00:19.155Z,14.40
2023-05-04T16:02:46.009Z,13.70
2023-05-04T16:05:13.075Z,14.10
2023-05-04T16:07:40.783Z,14.20
2023-05-04T16:10:08.886Z,14.00
2023-05-04T16:12:36.249Z,13.70
2023-05-04T16:15:03.223Z,14.50
2023-05-04T16:17:34.962Z,13.40
2023-05-04T16:20:03.280Z,14.00
2023-05-04T16:22:30.961Z,13.30
2023-05-04T16:24:57.950Z,13.00
2023-05-04T16:27:26.922Z,14.00
2023-05-04T16:29:53.706Z,13.90
2023-05-04T16:32:20.800Z,13.80
2023-05-04T16:34:49.015Z,13.40
2023-05-04T16:37:17.716Z,13.20
2023-05-04T16:39:44.905Z,13.40
2023-05-04T16:42:11.672Z,13.40
2023-05-04T16:44:38.590Z,13.80
2023-05-04T16:47:05.565Z,13.80
2023-05-04T16:49:32.533Z,14.00
2023-05-04T16:52:01.512Z,14.30
2023-05-04T16:54:31.218Z,14.20
2023-05-04T16:56:58.382Z,14.50
2023-05-04T16:59:26.391Z,14.20
2023-05-04T17:01:53.254Z,14.30
2023-05-04T17:04:20.153Z,14.40
2023-05-04T17:06:47.024Z,14.20
2023-05-04T17:09:13.759Z,14.30
2023-05-04T17:11:40.682Z,13.10
2023-05-04T17:14:08.019Z,13.90
2023-05-04T17:16:34.814Z,12.90
2023-05-04T17:19:07.344Z,14.70
2023-05-04T17:21:35.496Z,15.50
2023-05-04T17:24:02.472Z,15.70
2023-05-04T17:26:29.450Z,16.80
2023-05-04T17:28:56.577Z,13.60
2023-05-04T17:31:23.429Z,13.90
2023-05-04T17:33:50.280Z,14.30
2023-05-04T17:36:17.179Z,14.30
2023-05-04T17:38:43.951Z,13.10
2023-05-04T17:41:11.008Z,13.00
2023-05-04T17:44:30.123Z,12.30
2023-05-04T17:46:57.071Z,13.20
2023-05-04T17:49:23.900Z,13.10
2023-05-04T17:51:50.683Z,11.80
2023-05-04T17:54:17.424Z,13.30
2023-05-04T17:56:44.233Z,12.90
2023-05-04T17:59:11.340Z,11.70
2023-05-04T18:01:38.171Z,11.00
2023-05-04T18:04:05.589Z,11.40
2023-05-04T18:06:32.840Z,11.90
2023-05-04T18:09:00.914Z,12.20
2023-05-04T18:11:27.717Z,12.00
2023-05-04T18:13:56.590Z,11.50
2023-05-04T18:16:24.513Z,10.80
2023-05-04T18:18:51.954Z,11.50
2023-05-04T18:21:18.943Z,11.10
2023-05-04T18:23:46.317Z,10.20
2023-05-04T18:26:20.398Z,10.70
2023-05-04T18:28:47.147Z,11.20
2023-05-04T18:31:14.431Z,10.70
2023-05-04T18:33:42.045Z,11.00
2023-05-04T18:36:09.329Z,10.60
2023-05-04T18:38:37.145Z,10.70
2023-05-04T18:41:04.244Z,10.80
2023-05-04T18:43:31.811Z,11.20
2023-05-04T18:46:15.882Z,12.00
2023-05-04T18:48:50.983Z,10.80
2023-05-04T18:51:18.179Z,10.20
2023-05-04T18:57:06.974Z,9.90
2023-05-04T18:59:35.053Z,10.20
2023-05-04T19:02:02.320Z,9.30
2023-05-04T19:04:29.700Z,9.50
2023-05-04T19:06:59.827Z,10.50
2023-05-04T19:09:27.148Z,10.00
2023-05-04T19:11:54.304Z,10.00
2023-05-04T19:14:21.833Z,9.70
2023-05-04T19:16:48.567Z,9.50
2023-05-04T19:19:15.390Z,9.50
2023-05-04T19:21:42.997Z,9.80
2023-05-04T19:24:10.464Z,9.10
2023-05-04T19:26:38.604Z,9.30
2023-05-04T19:29:05.335Z,9.10
2023-05-04T19:31:32.220Z,9.70
2023-05-04T19:33:58.949Z,9.60
2023-05-04T19:36:25.848Z,10.40
2023-05-04T19:38:52.859Z,10.50
2023-05-04T19:41:20.392Z,10.50
2023-05-04T19:43:47.597Z,9.90
2023-05-04T19:46:14.384Z,9.50
2023-05-04T19:48:41.976Z,9.70
2023-05-04T19:51:09.000Z,12.00
2023-05-04T19:53:35.907Z,13.00
2023-05-04T19:56:03.113Z,12.60
2023-05-04T19:58:30.961Z,13.10
2023-05-04T20:00:57.760Z,11.60
2023-05-04T20:03:24.647Z,11.60
2023-05-04T20:05:52.117Z,13.30
2023-05-04T20:08:18.998Z,12.70
2023-05-04T20:10:45.721Z,12.20
2023-05-04T20:13:12.874Z,11.10
2023-05-04T20:15:39.851Z,9.30
2023-05-04T20:18:06.684Z,9.00
2023-05-04T20:20:33.617Z,8.30
2023-05-04T20:23:00.371Z,8.70
2023-05-04T20:25:27.664Z,8.50
2023-05-04T20:27:54.794Z,8.60
2023-05-04T20:30:21.610Z,8.30
2023-05-04T20:32:48.898Z,7.70
2023-05-04T20:35:16.592Z,8.00
2023-05-04T20:37:43.375Z,7.50
2023-05-04T20:40:11.071Z,8.20
2023-05-04T20:42:38.618Z,7.80
2023-05-04T20:45:06.185Z,7.70
2023-05-04T20:47:32.963Z,7.60
2023-05-04T20:49:59.966Z,8.00
2023-05-04T20:52:27.040Z,7.80
2023-05-04T20:54:54.707Z,8.50
2023-05-04T20:57:21.513Z,8.90
2023-05-04T20:59:48.481Z,9.00
2023-05-04T21:02:15.645Z,9.60
2023-05-04T21:04:43.427Z,9.20
2023-05-04T21:07:10.169Z,9.60
2023-05-04T21:09:36.934Z,8.70
2023-05-04T21:12:03.984Z,9.00
2023-05-04T21:14:30.779Z,8.90
2023-05-04T21:16:57.763Z,8.90
2023-05-04T21:19:24.586Z,9.90
2023-05-04T21:21:51.874Z,8.60
2023-05-04T21:24:18.674Z,8.70
2023-05-04T21:26:46.154Z,8.80
2023-05-04T21:29:13.028Z,9.10
2023-05-04T21:31:40.253Z,8.90
2023-05-04T21:34:07.283Z,8.60
2023-05-04T21:36:34.052Z,9.60
2023-05-04T21:39:00.982Z,9.90
2023-05-04T21:41:27.815Z,10.00
2023-05-04T21:43:54.564Z,9.00
2023-05-04T21:46:21.344Z,10.20
2023-05-04T21:48:48.181Z,9.40
2023-05-04T21:51:15.012Z,8.90
2023-05-04T21:53:44.933Z,9.70
2023-05-04T21:56:12.076Z,9.40
2023-05-04T21:58:43.081Z,9.20
2023-05-04T22:01:09.951Z,9.20
2023-05-04T22:03:37.095Z,9.30
2023-05-04T22:06:04.591Z,10.20
2023-05-04T22:08:31.442Z,9.20
2023-05-04T22:10:58.821Z,9.60
2023-05-04T22:13:26.033Z,10.10
2023-05-04T22:15:53.581Z,9.40
2023-05-04T22:18:20.876Z,10.30
2023-05-04T22:20:47.723Z,9.10
2023-05-04T22:23:14.789Z,9.30
2023-05-04T22:25:41.728Z,8.80
2023-05-04T22:28:08.471Z,8.70
2023-05-04T22:30:35.381Z,8.30
2023-05-04T22:33:02.350Z,8.60
2023-05-04T22:35:31.442Z,9.60
2023-05-04T22:37:58.346Z,8.70
2023-05-04T22:40:25.256Z,8.80
2023-05-04T22:42:51.993Z,9.30
2023-05-04T22:45:18.973Z,8.80
2023-05-04T22:47:46.994Z,8.70
2023-05-04T22:50:14.125Z,9.60
2023-05-04T22:52:41.385Z,9.30
2023-05-04T22:55:08.981Z,9.40
2023-05-04T22:57:36.347Z,9.20
2023-05-04T23:00:05.492Z,8.90
2023-05-04T23:02:32.802Z,8.80
2023-05-04T23:05:00.624Z,9.90
2023-05-04T23:07:27.652Z,9.70
2023-05-04T23:09:54.392Z,9.10
2023-05-04T23:12:21.147Z,9.20
2023-05-04T23:14:54.781Z,9.60
2023-05-04T23:17:22.058Z,9.40
2023-05-04T23:19:48.842Z,10.40
2023-05-04T23:22:15.594Z,9.80
2023-05-04T23:24:42.541Z,10.10
2023-05-04T23:27:09.896Z,9.50
2023-05-04T23:29:36.746Z,9.80
2023-05-04T23:32:04.083Z,10.00
2023-05-04T23:34:31.186Z,9.80
2023-05-04T23:36:57.997Z,10.30
2023-05-04T23:39:24.770Z,9.10
2023-05-04T23:41:51.578Z,12.10
2023-05-04T23:44:18.337Z,11.30
2023-05-04T23:46:45.219Z,12.40
2023-05-04T23:49:12.013Z,10.80
2023-05-04T23:51:38.851Z,10.50
2023-05-04T23:54:05.679Z,10.90
2023-05-04T23:56:32.748Z,11.40
2023-05-04T23:58:59.691Z,10.90
